sensor_id;sensor_type;location;lat;lon;timestamp;temperature;humidity
21787;DHT22;11055;50.870;4.316;2022-07-29T00:00:19;21.20;99.90
21787;DHT22;11055;50.870;4.316;2022-07-29T00:02:45;21.20;99.90
21787;DHT22;11055;50.870;4.316;2022-07-29T00:05:10;21.10;99.90
21787;DHT22;11055;50.870;4.316;2022-07-29T00:07:39;21.00;99.90
21787;DHT22;11055;50.870;4.316;2022-07-29T00:10:04;21.20;99.90
21787;DHT22;11055;50.870;4.316;2022-07-29T00:12:30;21.00;99.90
21787;DHT22;11055;50.870;4.316;2022-07-29T00:14:56;21.10;99.90
21787;DHT22;11055;50.870;4.316;2022-07-29T00:17:22;21.10;99.90
21787;DHT22;11055;50.870;4.316;2022-07-29T00:19:48;21.00;99.90
21787;DHT22;11055;50.870;4.316;2022-07-29T00:22:13;21.00;99.90
21787;DHT22;11055;50.870;4.316;2022-07-29T00:24:39;21.00;99.90
21787;DHT22;11055;50.870;4.316;2022-07-29T00:27:04;21.10;99.90
21787;DHT22;11055;50.870;4.316;2022-07-29T00:29:30;21.00;99.90
21787;DHT22;11055;50.870;4.316;2022-07-29T00:31:55;20.90;99.90
21787;DHT22;11055;50.870;4.316;2022-07-29T00:34:21;20.90;99.90
21787;DHT22;11055;50.870;4.316;2022-07-29T00:37:05;21.00;99.90
21787;DHT22;11055;50.870;4.316;2022-07-29T00:39:30;20.90;99.90
21787;DHT22;11055;50.870;4.316;2022-07-29T00:41:56;20.70;99.90
21787;DHT22;11055;50.870;4.316;2022-07-29T00:44:22;20.70;99.90
21787;DHT22;11055;50.870;4.316;2022-07-29T00:46:47;20.80;99.90
21787;DHT22;11055;50.870;4.316;2022-07-29T00:49:13;20.90;99.90
21787;DHT22;11055;50.870;4.316;2022-07-29T00:51:38;20.90;99.90
21787;DHT22;11055;50.870;4.316;2022-07-29T00:54:04;20.80;99.90
21787;DHT22;11055;50.870;4.316;2022-07-29T00:56:30;20.80;99.90
21787;DHT22;11055;50.870;4.316;2022-07-29T00:58:56;20.80;99.90
21787;DHT22;11055;50.870;4.316;2022-07-29T01:01:22;20.80;99.90
21787;DHT22;11055;50.870;4.316;2022-07-29T01:03:47;20.80;99.90
21787;DHT22;11055;50.870;4.316;2022-07-29T01:06:13;20.60;99.90
21787;DHT22;11055;50.870;4.316;2022-07-29T01:08:39;20.50;99.90
21787;DHT22;11055;50.870;4.316;2022-07-29T01:11:05;20.70;99.90
21787;DHT22;11055;50.870;4.316;2022-07-29T01:13:31;20.60;99.90
21787;DHT22;11055;50.870;4.316;2022-07-29T01:16:03;20.70;99.90
21787;DHT22;11055;50.870;4.316;2022-07-29T01:18:32;20.70;99.90
21787;DHT22;11055;50.870;4.316;2022-07-29T01:31:02;20.50;99.90
21787;DHT22;11055;50.870;4.316;2022-07-29T01:33:29;20.40;99.90
21787;DHT22;11055;50.870;4.316;2022-07-29T01:36:16;20.40;99.90
21787;DHT22;11055;50.870;4.316;2022-07-29T01:38:42;20.40;99.90
21787;DHT22;11055;50.870;4.316;2022-07-29T01:41:09;20.40;99.90
21787;DHT22;11055;50.870;4.316;2022-07-29T01:43:39;20.50;99.90
21787;DHT22;11055;50.870;4.316;2022-07-29T01:46:09;20.50;99.90
21787;DHT22;11055;50.870;4.316;2022-07-29T01:48:36;20.50;99.90
21787;DHT22;11055;50.870;4.316;2022-07-29T01:51:05;20.40;99.90
21787;DHT22;11055;50.870;4.316;2022-07-29T01:55:58;20.40;99.90
21787;DHT22;11055;50.870;4.316;2022-07-29T01:58:25;20.10;99.90
21787;DHT22;11055;50.870;4.316;2022-07-29T02:00:52;19.90;99.90
21787;DHT22;11055;50.870;4.316;2022-07-29T02:03:19;19.80;99.90
21787;DHT22;11055;50.870;4.316;2022-07-29T02:05:45;19.70;99.90
21787;DHT22;11055;50.870;4.316;2022-07-29T02:08:13;19.70;99.90
21787;DHT22;11055;50.870;4.316;2022-07-29T02:10:40;19.60;99.90
21787;DHT22;11055;50.870;4.316;2022-07-29T02:13:07;19.60;99.90
21787;DHT22;11055;50.870;4.316;2022-07-29T02:15:34;19.70;99.90
21787;DHT22;11055;50.870;4.316;2022-07-29T02:18:07;19.70;99.90
21787;DHT22;11055;50.870;4.316;2022-07-29T02:20:33;19.70;99.90
21787;DHT22;11055;50.870;4.316;2022-07-29T02:23:00;19.70;99.90
21787;DHT22;11055;50.870;4.316;2022-07-29T02:25:27;19.80;99.90
21787;DHT22;11055;50.870;4.316;2022-07-29T02:27:53;19.80;99.90
21787;DHT22;11055;50.870;4.316;2022-07-29T02:30:19;19.90;99.90
21787;DHT22;11055;50.870;4.316;2022-07-29T02:32:46;19.90;99.90
21787;DHT22;11055;50.870;4.316;2022-07-29T02:35:13;19.90;99.90
21787;DHT22;11055;50.870;4.316;2022-07-29T02:37:39;19.90;99.90
21787;DHT22;11055;50.870;4.316;2022-07-29T02:40:05;19.80;99.90
21787;DHT22;11055;50.870;4.316;2022-07-29T02:42:33;19.90;99.90
21787;DHT22;11055;50.870;4.316;2022-07-29T02:45:00;20.00;99.90
21787;DHT22;11055;50.870;4.316;2022-07-29T02:50:02;20.10;99.90
21787;DHT22;11055;50.870;4.316;2022-07-29T02:52:37;19.90;99.90
21787;DHT22;11055;50.870;4.316;2022-07-29T02:55:11;20.00;99.90
21787;DHT22;11055;50.870;4.316;2022-07-29T02:57:42;19.90;99.90
21787;DHT22;11055;50.870;4.316;2022-07-29T03:00:08;19.70;99.90
21787;DHT22;11055;50.870;4.316;2022-07-29T03:02:38;19.50;99.90
21787;DHT22;11055;50.870;4.316;2022-07-29T03:05:06;19.40;99.90
21787;DHT22;11055;50.870;4.316;2022-07-29T03:07:33;19.30;99.90
21787;DHT22;11055;50.870;4.316;2022-07-29T03:09:59;19.10;99.90
21787;DHT22;11055;50.870;4.316;2022-07-29T03:12:25;19.00;99.90
21787;DHT22;11055;50.870;4.316;2022-07-29T03:14:52;19.10;99.90
21787;DHT22;11055;50.870;4.316;2022-07-29T03:17:18;19.10;99.90
21787;DHT22;11055;50.870;4.316;2022-07-29T03:19:44;19.20;99.90
21787;DHT22;11055;50.870;4.316;2022-07-29T03:22:10;19.20;99.90
21787;DHT22;11055;50.870;4.316;2022-07-29T03:24:36;19.10;99.90
21787;DHT22;11055;50.870;4.316;2022-07-29T03:27:02;19.10;99.90
21787;DHT22;11055;50.870;4.316;2022-07-29T03:29:28;19.00;99.90
21787;DHT22;11055;50.870;4.316;2022-07-29T03:31:54;19.10;99.90
21787;DHT22;11055;50.870;4.316;2022-07-29T03:34:19;19.30;99.90
21787;DHT22;11055;50.870;4.316;2022-07-29T03:36:46;19.40;99.90
21787;DHT22;11055;50.870;4.316;2022-07-29T03:39:12;19.30;99.90
21787;DHT22;11055;50.870;4.316;2022-07-29T03:41:40;19.20;99.90
21787;DHT22;11055;50.870;4.316;2022-07-29T03:44:06;19.20;99.90
21787;DHT22;11055;50.870;4.316;2022-07-29T03:46:33;19.20;99.90
21787;DHT22;11055;50.870;4.316;2022-07-29T03:48:59;19.30;99.90
21787;DHT22;11055;50.870;4.316;2022-07-29T03:51:25;19.30;99.90
21787;DHT22;11055;50.870;4.316;2022-07-29T03:53:52;19.30;99.90
21787;DHT22;11055;50.870;4.316;2022-07-29T03:56:17;19.40;99.90
21787;DHT22;11055;50.870;4.316;2022-07-29T03:58:46;19.30;99.90
21787;DHT22;11055;50.870;4.316;2022-07-29T04:01:11;19.20;99.90
21787;DHT22;11055;50.870;4.316;2022-07-29T04:03:38;19.20;99.90
21787;DHT22;11055;50.870;4.316;2022-07-29T04:06:04;19.20;99.90
21787;DHT22;11055;50.870;4.316;2022-07-29T04:08:34;19.20;99.90
21787;DHT22;11055;50.870;4.316;2022-07-29T04:11:00;19.30;99.90
21787;DHT22;11055;50.870;4.316;2022-07-29T04:13:25;19.20;99.90
21787;DHT22;11055;50.870;4.316;2022-07-29T04:15:51;19.10;99.90
21787;DHT22;11055;50.870;4.316;2022-07-29T04:18:16;19.10;99.90
21787;DHT22;11055;50.870;4.316;2022-07-29T04:20:42;19.00;99.90
21787;DHT22;11055;50.870;4.316;2022-07-29T04:23:07;19.00;99.90
21787;DHT22;11055;50.870;4.316;2022-07-29T04:25:33;18.90;99.90
21787;DHT22;11055;50.870;4.316;2022-07-29T04:28:01;18.90;99.90
21787;DHT22;11055;50.870;4.316;2022-07-29T04:30:27;18.90;99.90
21787;DHT22;11055;50.870;4.316;2022-07-29T04:32:53;18.80;99.90
21787;DHT22;11055;50.870;4.316;2022-07-29T04:35:19;18.80;99.90
21787;DHT22;11055;50.870;4.316;2022-07-29T04:37:44;18.90;99.90
21787;DHT22;11055;50.870;4.316;2022-07-29T04:40:10;18.90;99.90
21787;DHT22;11055;50.870;4.316;2022-07-29T04:42:37;18.80;99.90
21787;DHT22;11055;50.870;4.316;2022-07-29T04:45:03;18.90;99.90
21787;DHT22;11055;50.870;4.316;2022-07-29T04:47:28;18.90;99.90
21787;DHT22;11055;50.870;4.316;2022-07-29T04:49:54;18.90;99.90
21787;DHT22;11055;50.870;4.316;2022-07-29T04:52:20;19.00;99.90
21787;DHT22;11055;50.870;4.316;2022-07-29T04:54:45;18.90;99.90
21787;DHT22;11055;50.870;4.316;2022-07-29T04:57:11;18.90;99.90
21787;DHT22;11055;50.870;4.316;2022-07-29T04:59:36;18.80;99.90
21787;DHT22;11055;50.870;4.316;2022-07-29T05:02:02;18.80;99.90
21787;DHT22;11055;50.870;4.316;2022-07-29T05:04:27;18.90;99.90
21787;DHT22;11055;50.870;4.316;2022-07-29T05:06:53;19.00;99.90
21787;DHT22;11055;50.870;4.316;2022-07-29T05:09:18;18.90;99.90
21787;DHT22;11055;50.870;4.316;2022-07-29T05:11:44;18.90;99.90
21787;DHT22;11055;50.870;4.316;2022-07-29T05:14:09;19.00;99.90
21787;DHT22;11055;50.870;4.316;2022-07-29T05:16:35;19.10;99.90
21787;DHT22;11055;50.870;4.316;2022-07-29T05:19:00;19.10;99.90
21787;DHT22;11055;50.870;4.316;2022-07-29T05:21:26;18.90;99.90
21787;DHT22;11055;50.870;4.316;2022-07-29T05:23:52;18.90;99.90
21787;DHT22;11055;50.870;4.316;2022-07-29T05:26:17;18.90;99.90
21787;DHT22;11055;50.870;4.316;2022-07-29T05:28:43;19.00;99.90
21787;DHT22;11055;50.870;4.316;2022-07-29T05:31:08;19.10;99.90
21787;DHT22;11055;50.870;4.316;2022-07-29T05:33:34;19.10;99.90
21787;DHT22;11055;50.870;4.316;2022-07-29T05:36:00;19.10;99.90
21787;DHT22;11055;50.870;4.316;2022-07-29T05:38:25;19.10;99.90
21787;DHT22;11055;50.870;4.316;2022-07-29T05:40:51;19.10;99.90
21787;DHT22;11055;50.870;4.316;2022-07-29T05:43:16;19.20;99.90
21787;DHT22;11055;50.870;4.316;2022-07-29T05:45:42;19.10;99.90
21787;DHT22;11055;50.870;4.316;2022-07-29T05:48:07;19.10;99.90
21787;DHT22;11055;50.870;4.316;2022-07-29T05:50:33;19.10;99.90
21787;DHT22;11055;50.870;4.316;2022-07-29T05:52:58;19.20;99.90
21787;DHT22;11055;50.870;4.316;2022-07-29T05:55:24;19.10;99.90
21787;DHT22;11055;50.870;4.316;2022-07-29T05:57:51;18.90;99.90
21787;DHT22;11055;50.870;4.316;2022-07-29T06:00:17;18.90;99.90
21787;DHT22;11055;50.870;4.316;2022-07-29T06:02:42;19.10;99.90
21787;DHT22;11055;50.870;4.316;2022-07-29T06:05:08;19.10;99.90
21787;DHT22;11055;50.870;4.316;2022-07-29T06:07:33;19.00;99.90
21787;DHT22;11055;50.870;4.316;2022-07-29T06:09:59;19.10;99.90
21787;DHT22;11055;50.870;4.316;2022-07-29T06:12:24;19.00;99.90
21787;DHT22;11055;50.870;4.316;2022-07-29T06:14:50;19.00;99.90
21787;DHT22;11055;50.870;4.316;2022-07-29T06:17:16;19.10;99.90
21787;DHT22;11055;50.870;4.316;2022-07-29T06:19:41;19.20;99.90
21787;DHT22;11055;50.870;4.316;2022-07-29T06:22:07;19.20;99.90
21787;DHT22;11055;50.870;4.316;2022-07-29T06:24:33;19.10;99.90
21787;DHT22;11055;50.870;4.316;2022-07-29T06:26:58;19.20;99.90
21787;DHT22;11055;50.870;4.316;2022-07-29T06:29:24;19.30;99.90
21787;DHT22;11055;50.870;4.316;2022-07-29T06:31:50;19.50;99.90
21787;DHT22;11055;50.870;4.316;2022-07-29T06:34:15;19.50;99.90
21787;DHT22;11055;50.870;4.316;2022-07-29T06:36:41;19.60;99.90
21787;DHT22;11055;50.870;4.316;2022-07-29T06:39:07;19.60;99.90
21787;DHT22;11055;50.870;4.316;2022-07-29T06:41:33;19.60;99.90
21787;DHT22;11055;50.870;4.316;2022-07-29T06:43:58;19.60;99.90
21787;DHT22;11055;50.870;4.316;2022-07-29T06:46:24;19.50;99.90
21787;DHT22;11055;50.870;4.316;2022-07-29T06:48:50;19.60;99.90
21787;DHT22;11055;50.870;4.316;2022-07-29T06:51:16;19.70;99.90
21787;DHT22;11055;50.870;4.316;2022-07-29T06:53:41;19.60;99.90
21787;DHT22;11055;50.870;4.316;2022-07-29T06:56:07;19.60;99.90
21787;DHT22;11055;50.870;4.316;2022-07-29T06:58:37;19.80;99.90
21787;DHT22;11055;50.870;4.316;2022-07-29T07:01:04;19.90;99.90
21787;DHT22;11055;50.870;4.316;2022-07-29T07:03:30;19.90;99.90
21787;DHT22;11055;50.870;4.316;2022-07-29T07:05:56;19.90;99.90
21787;DHT22;11055;50.870;4.316;2022-07-29T07:08:22;20.10;99.90
21787;DHT22;11055;50.870;4.316;2022-07-29T07:10:49;20.20;99.90
21787;DHT22;11055;50.870;4.316;2022-07-29T07:13:14;20.20;99.90
21787;DHT22;11055;50.870;4.316;2022-07-29T07:15:42;20.20;99.90
21787;DHT22;11055;50.870;4.316;2022-07-29T07:18:08;20.20;99.90
21787;DHT22;11055;50.870;4.316;2022-07-29T07:20:34;20.30;99.90
21787;DHT22;11055;50.870;4.316;2022-07-29T07:22:59;20.30;99.90
21787;DHT22;11055;50.870;4.316;2022-07-29T07:25:25;20.20;99.90
21787;DHT22;11055;50.870;4.316;2022-07-29T07:27:51;20.20;99.90
21787;DHT22;11055;50.870;4.316;2022-07-29T07:30:16;20.10;99.90
21787;DHT22;11055;50.870;4.316;2022-07-29T07:32:42;20.20;99.90
21787;DHT22;11055;50.870;4.316;2022-07-29T07:35:08;20.40;99.90
21787;DHT22;11055;50.870;4.316;2022-07-29T07:37:34;20.70;99.90
21787;DHT22;11055;50.870;4.316;2022-07-29T07:40:00;20.80;99.90
21787;DHT22;11055;50.870;4.316;2022-07-29T07:42:25;20.90;99.90
21787;DHT22;11055;50.870;4.316;2022-07-29T07:44:51;21.00;99.90
21787;DHT22;11055;50.870;4.316;2022-07-29T07:47:17;21.20;99.90
21787;DHT22;11055;50.870;4.316;2022-07-29T07:49:46;20.90;99.90
21787;DHT22;11055;50.870;4.316;2022-07-29T07:52:12;20.70;99.90
21787;DHT22;11055;50.870;4.316;2022-07-29T07:54:37;20.70;99.90
21787;DHT22;11055;50.870;4.316;2022-07-29T07:57:03;21.00;99.90
21787;DHT22;11055;50.870;4.316;2022-07-29T07:59:28;21.30;99.90
21787;DHT22;11055;50.870;4.316;2022-07-29T08:01:54;21.50;99.90
21787;DHT22;11055;50.870;4.316;2022-07-29T08:04:19;21.70;99.90
21787;DHT22;11055;50.870;4.316;2022-07-29T08:06:45;21.80;99.90
21787;DHT22;11055;50.870;4.316;2022-07-29T08:09:10;22.00;99.90
21787;DHT22;11055;50.870;4.316;2022-07-29T08:11:36;22.10;99.90
21787;DHT22;11055;50.870;4.316;2022-07-29T08:14:02;21.70;99.90
21787;DHT22;11055;50.870;4.316;2022-07-29T08:16:27;21.70;99.90
21787;DHT22;11055;50.870;4.316;2022-07-29T08:18:53;21.90;99.90
21787;DHT22;11055;50.870;4.316;2022-07-29T08:21:22;22.20;99.90
21787;DHT22;11055;50.870;4.316;2022-07-29T08:23:48;22.40;99.90
21787;DHT22;11055;50.870;4.316;2022-07-29T08:26:40;22.40;99.90
21787;DHT22;11055;50.870;4.316;2022-07-29T08:29:05;22.50;99.90
21787;DHT22;11055;50.870;4.316;2022-07-29T08:31:31;22.80;99.90
21787;DHT22;11055;50.870;4.316;2022-07-29T08:33:56;22.50;99.90
21787;DHT22;11055;50.870;4.316;2022-07-29T08:36:25;22.20;99.90
21787;DHT22;11055;50.870;4.316;2022-07-29T08:38:52;21.90;99.90
21787;DHT22;11055;50.870;4.316;2022-07-29T08:41:18;21.80;99.90
21787;DHT22;11055;50.870;4.316;2022-07-29T08:43:44;21.70;99.90
21787;DHT22;11055;50.870;4.316;2022-07-29T08:46:10;21.60;99.90
21787;DHT22;11055;50.870;4.316;2022-07-29T08:48:35;21.70;99.90
21787;DHT22;11055;50.870;4.316;2022-07-29T08:51:01;21.80;99.90
21787;DHT22;11055;50.870;4.316;2022-07-29T08:53:27;21.80;99.90
21787;DHT22;11055;50.870;4.316;2022-07-29T08:55:53;22.00;99.90
21787;DHT22;11055;50.870;4.316;2022-07-29T08:58:19;22.20;99.90
21787;DHT22;11055;50.870;4.316;2022-07-29T09:00:47;22.10;99.90
21787;DHT22;11055;50.870;4.316;2022-07-29T09:03:15;22.20;99.90
21787;DHT22;11055;50.870;4.316;2022-07-29T09:05:41;22.40;99.90
21787;DHT22;11055;50.870;4.316;2022-07-29T09:08:07;22.50;99.90
21787;DHT22;11055;50.870;4.316;2022-07-29T09:10:34;22.60;99.90
21787;DHT22;11055;50.870;4.316;2022-07-29T09:13:00;22.80;99.90
21787;DHT22;11055;50.870;4.316;2022-07-29T09:15:26;22.90;99.90
21787;DHT22;11055;50.870;4.316;2022-07-29T09:17:52;23.00;99.90
21787;DHT22;11055;50.870;4.316;2022-07-29T09:20:19;23.20;99.90
21787;DHT22;11055;50.870;4.316;2022-07-29T09:22:45;23.10;99.90
21787;DHT22;11055;50.870;4.316;2022-07-29T09:25:15;22.80;99.90
21787;DHT22;11055;50.870;4.316;2022-07-29T09:28:04;22.90;99.90
21787;DHT22;11055;50.870;4.316;2022-07-29T09:30:30;23.00;99.90
21787;DHT22;11055;50.870;4.316;2022-07-29T09:32:56;23.20;99.90
21787;DHT22;11055;50.870;4.316;2022-07-29T09:35:24;23.50;99.90
21787;DHT22;11055;50.870;4.316;2022-07-29T09:37:50;23.60;99.90
21787;DHT22;11055;50.870;4.316;2022-07-29T09:40:19;23.50;99.90
21787;DHT22;11055;50.870;4.316;2022-07-29T09:42:45;23.40;99.90
21787;DHT22;11055;50.870;4.316;2022-07-29T09:45:11;23.60;99.90
21787;DHT22;11055;50.870;4.316;2022-07-29T09:47:41;23.80;99.90
21787;DHT22;11055;50.870;4.316;2022-07-29T09:50:07;23.80;99.90
21787;DHT22;11055;50.870;4.316;2022-07-29T09:52:41;23.80;99.90
21787;DHT22;11055;50.870;4.316;2022-07-29T09:55:09;24.00;99.90
21787;DHT22;11055;50.870;4.316;2022-07-29T09:57:38;23.90;99.90
21787;DHT22;11055;50.870;4.316;2022-07-29T10:00:05;24.20;99.90
21787;DHT22;11055;50.870;4.316;2022-07-29T10:02:32;24.30;99.90
21787;DHT22;11055;50.870;4.316;2022-07-29T10:04:59;24.50;99.90
21787;DHT22;11055;50.870;4.316;2022-07-29T10:07:25;24.70;99.90
21787;DHT22;11055;50.870;4.316;2022-07-29T10:09:52;24.80;99.90
21787;DHT22;11055;50.870;4.316;2022-07-29T10:12:19;24.80;99.90
21787;DHT22;11055;50.870;4.316;2022-07-29T10:14:45;24.90;99.90
21787;DHT22;11055;50.870;4.316;2022-07-29T10:17:10;25.00;99.90
21787;DHT22;11055;50.870;4.316;2022-07-29T10:19:36;25.10;99.90
21787;DHT22;11055;50.870;4.316;2022-07-29T10:22:04;25.20;99.90
21787;DHT22;11055;50.870;4.316;2022-07-29T10:24:30;25.30;99.90
21787;DHT22;11055;50.870;4.316;2022-07-29T10:26:57;25.50;99.90
21787;DHT22;11055;50.870;4.316;2022-07-29T10:29:23;25.50;99.10
21787;DHT22;11055;50.870;4.316;2022-07-29T10:37:37;25.70;98.00
21787;DHT22;11055;50.870;4.316;2022-07-29T10:43:02;25.90;97.70
21787;DHT22;11055;50.870;4.316;2022-07-29T10:45:32;25.60;97.00
21787;DHT22;11055;50.870;4.316;2022-07-29T10:48:02;25.30;97.30
21787;DHT22;11055;50.870;4.316;2022-07-29T10:50:28;25.30;97.70
21787;DHT22;11055;50.870;4.316;2022-07-29T10:53:13;25.30;96.70
21787;DHT22;11055;50.870;4.316;2022-07-29T10:55:39;25.30;96.50
21787;DHT22;11055;50.870;4.316;2022-07-29T11:00:38;25.60;94.30
21787;DHT22;11055;50.870;4.316;2022-07-29T11:03:04;25.90;94.10
21787;DHT22;11055;50.870;4.316;2022-07-29T11:05:30;25.90;93.50
21787;DHT22;11055;50.870;4.316;2022-07-29T11:10:50;26.30;93.20
21787;DHT22;11055;50.870;4.316;2022-07-29T11:16:00;26.30;94.10
21787;DHT22;11055;50.870;4.316;2022-07-29T11:18:25;26.40;94.40
21787;DHT22;11055;50.870;4.316;2022-07-29T11:20:51;26.40;94.20
21787;DHT22;11055;50.870;4.316;2022-07-29T11:23:32;26.60;92.50
21787;DHT22;11055;50.870;4.316;2022-07-29T11:39:28;26.90;90.20
21787;DHT22;11055;50.870;4.316;2022-07-29T11:42:14;27.00;91.00
21787;DHT22;11055;50.870;4.316;2022-07-29T11:47:24;26.80;89.70
21787;DHT22;11055;50.870;4.316;2022-07-29T11:49:50;27.00;91.00
21787;DHT22;11055;50.870;4.316;2022-07-29T11:52:16;27.30;90.60
21787;DHT22;11055;50.870;4.316;2022-07-29T11:54:42;27.50;88.40
21787;DHT22;11055;50.870;4.316;2022-07-29T11:57:08;27.50;88.90
21787;DHT22;11055;50.870;4.316;2022-07-29T11:59:38;27.60;88.30
21787;DHT22;11055;50.870;4.316;2022-07-29T12:02:04;27.70;86.40
21787;DHT22;11055;50.870;4.316;2022-07-29T12:04:30;27.90;87.90
21787;DHT22;11055;50.870;4.316;2022-07-29T12:06:55;27.90;85.40
21787;DHT22;11055;50.870;4.316;2022-07-29T12:09:22;27.80;84.90
21787;DHT22;11055;50.870;4.316;2022-07-29T12:11:47;27.40;85.90
21787;DHT22;11055;50.870;4.316;2022-07-29T12:14:29;27.50;85.30
21787;DHT22;11055;50.870;4.316;2022-07-29T12:16:55;27.70;84.40
21787;DHT22;11055;50.870;4.316;2022-07-29T12:19:21;28.00;83.60
21787;DHT22;11055;50.870;4.316;2022-07-29T12:21:50;28.10;83.90
21787;DHT22;11055;50.870;4.316;2022-07-29T12:24:16;28.40;82.50
21787;DHT22;11055;50.870;4.316;2022-07-29T12:26:52;28.80;85.20
21787;DHT22;11055;50.870;4.316;2022-07-29T12:29:17;29.20;82.30
21787;DHT22;11055;50.870;4.316;2022-07-29T12:31:44;29.00;81.80
21787;DHT22;11055;50.870;4.316;2022-07-29T12:34:10;28.80;81.80
21787;DHT22;11055;50.870;4.316;2022-07-29T12:36:36;28.90;83.00
21787;DHT22;11055;50.870;4.316;2022-07-29T12:39:02;28.70;84.60
21787;DHT22;11055;50.870;4.316;2022-07-29T12:41:28;28.80;81.10
21787;DHT22;11055;50.870;4.316;2022-07-29T12:43:54;28.30;81.80
21787;DHT22;11055;50.870;4.316;2022-07-29T12:46:19;28.10;82.70
21787;DHT22;11055;50.870;4.316;2022-07-29T12:48:49;28.10;83.10
21787;DHT22;11055;50.870;4.316;2022-07-29T12:51:15;28.00;81.00
21787;DHT22;11055;50.870;4.316;2022-07-29T12:54:00;28.20;82.00
21787;DHT22;11055;50.870;4.316;2022-07-29T12:56:26;28.20;80.00
21787;DHT22;11055;50.870;4.316;2022-07-29T12:58:52;27.60;82.40
21787;DHT22;11055;50.870;4.316;2022-07-29T13:01:18;27.30;83.40
21787;DHT22;11055;50.870;4.316;2022-07-29T13:03:54;27.30;83.70
21787;DHT22;11055;50.870;4.316;2022-07-29T13:07:02;27.30;83.30
21787;DHT22;11055;50.870;4.316;2022-07-29T13:09:12;27.20;83.10
21787;DHT22;11055;50.870;4.316;2022-07-29T13:11:45;27.20;84.10
21787;DHT22;11055;50.870;4.316;2022-07-29T13:14:11;27.20;84.80
21787;DHT22;11055;50.870;4.316;2022-07-29T13:19:32;27.10;84.00
21787;DHT22;11055;50.870;4.316;2022-07-29T13:21:57;27.10;86.60
21787;DHT22;11055;50.870;4.316;2022-07-29T13:24:23;27.40;84.50
21787;DHT22;11055;50.870;4.316;2022-07-29T13:26:48;27.20;82.20
21787;DHT22;11055;50.870;4.316;2022-07-29T13:29:14;27.10;83.30
21787;DHT22;11055;50.870;4.316;2022-07-29T13:31:39;27.00;82.00
21787;DHT22;11055;50.870;4.316;2022-07-29T13:34:05;26.60;82.10
21787;DHT22;11055;50.870;4.316;2022-07-29T13:36:31;26.50;85.50
21787;DHT22;11055;50.870;4.316;2022-07-29T13:38:56;26.50;84.20
21787;DHT22;11055;50.870;4.316;2022-07-29T13:41:22;26.40;85.20
21787;DHT22;11055;50.870;4.316;2022-07-29T13:43:47;26.40;85.30
21787;DHT22;11055;50.870;4.316;2022-07-29T13:46:13;26.40;86.10
21787;DHT22;11055;50.870;4.316;2022-07-29T13:48:38;26.50;85.20
21787;DHT22;11055;50.870;4.316;2022-07-29T13:51:04;26.70;85.20
21787;DHT22;11055;50.870;4.316;2022-07-29T13:53:29;26.90;85.10
21787;DHT22;11055;50.870;4.316;2022-07-29T13:55:55;27.00;83.60
21787;DHT22;11055;50.870;4.316;2022-07-29T13:58:20;27.10;81.70
21787;DHT22;11055;50.870;4.316;2022-07-29T14:00:46;27.00;82.90
21787;DHT22;11055;50.870;4.316;2022-07-29T14:03:11;27.00;84.70
21787;DHT22;11055;50.870;4.316;2022-07-29T14:05:37;26.80;84.60
21787;DHT22;11055;50.870;4.316;2022-07-29T14:08:02;26.90;84.60
21787;DHT22;11055;50.870;4.316;2022-07-29T14:10:28;26.90;84.20
21787;DHT22;11055;50.870;4.316;2022-07-29T14:12:53;27.00;84.40
21787;DHT22;11055;50.870;4.316;2022-07-29T14:15:19;26.90;83.90
21787;DHT22;11055;50.870;4.316;2022-07-29T14:17:45;27.00;84.30
21787;DHT22;11055;50.870;4.316;2022-07-29T14:20:10;26.90;83.00
21787;DHT22;11055;50.870;4.316;2022-07-29T14:22:36;26.70;82.50
21787;DHT22;11055;50.870;4.316;2022-07-29T14:25:02;26.70;83.60
21787;DHT22;11055;50.870;4.316;2022-07-29T14:27:28;26.80;82.30
21787;DHT22;11055;50.870;4.316;2022-07-29T14:29:53;26.90;81.60
21787;DHT22;11055;50.870;4.316;2022-07-29T14:32:19;26.80;82.20
21787;DHT22;11055;50.870;4.316;2022-07-29T14:34:44;26.60;82.90
21787;DHT22;11055;50.870;4.316;2022-07-29T14:37:10;26.70;83.70
21787;DHT22;11055;50.870;4.316;2022-07-29T14:39:36;26.60;83.50
21787;DHT22;11055;50.870;4.316;2022-07-29T14:42:01;26.60;83.60
21787;DHT22;11055;50.870;4.316;2022-07-29T14:44:27;26.60;83.60
21787;DHT22;11055;50.870;4.316;2022-07-29T14:46:57;26.60;84.10
21787;DHT22;11055;50.870;4.316;2022-07-29T14:49:22;26.70;84.80
21787;DHT22;11055;50.870;4.316;2022-07-29T14:51:48;26.70;82.80
21787;DHT22;11055;50.870;4.316;2022-07-29T14:54:13;26.50;83.30
21787;DHT22;11055;50.870;4.316;2022-07-29T14:56:39;26.30;83.60
21787;DHT22;11055;50.870;4.316;2022-07-29T14:59:05;26.10;85.70
21787;DHT22;11055;50.870;4.316;2022-07-29T15:01:31;26.20;87.40
21787;DHT22;11055;50.870;4.316;2022-07-29T15:03:56;26.40;86.00
21787;DHT22;11055;50.870;4.316;2022-07-29T15:06:21;26.40;85.40
21787;DHT22;11055;50.870;4.316;2022-07-29T15:08:47;26.40;85.00
21787;DHT22;11055;50.870;4.316;2022-07-29T15:11:13;26.40;84.40
21787;DHT22;11055;50.870;4.316;2022-07-29T15:13:38;26.40;84.40
21787;DHT22;11055;50.870;4.316;2022-07-29T15:16:04;26.50;86.00
21787;DHT22;11055;50.870;4.316;2022-07-29T15:18:30;26.60;85.00
21787;DHT22;11055;50.870;4.316;2022-07-29T15:20:55;26.50;84.40
21787;DHT22;11055;50.870;4.316;2022-07-29T15:23:21;26.50;84.50
21787;DHT22;11055;50.870;4.316;2022-07-29T15:25:46;26.70;84.80
21787;DHT22;11055;50.870;4.316;2022-07-29T15:28:12;26.60;83.90
21787;DHT22;11055;50.870;4.316;2022-07-29T15:30:37;26.50;85.30
21787;DHT22;11055;50.870;4.316;2022-07-29T15:33:06;26.40;83.50
21787;DHT22;11055;50.870;4.316;2022-07-29T15:35:32;26.40;83.00
21787;DHT22;11055;50.870;4.316;2022-07-29T15:37:57;26.50;82.50
21787;DHT22;11055;50.870;4.316;2022-07-29T15:40:23;26.20;85.10
21787;DHT22;11055;50.870;4.316;2022-07-29T15:42:48;26.10;84.60
21787;DHT22;11055;50.870;4.316;2022-07-29T15:45:14;26.10;84.10
21787;DHT22;11055;50.870;4.316;2022-07-29T15:47:39;26.10;85.10
21787;DHT22;11055;50.870;4.316;2022-07-29T15:50:05;26.20;84.60
21787;DHT22;11055;50.870;4.316;2022-07-29T15:52:31;26.40;83.90
21787;DHT22;11055;50.870;4.316;2022-07-29T15:54:57;26.50;81.50
21787;DHT22;11055;50.870;4.316;2022-07-29T15:57:23;26.70;83.30
21787;DHT22;11055;50.870;4.316;2022-07-29T15:59:48;26.60;81.00
21787;DHT22;11055;50.870;4.316;2022-07-29T16:02:14;26.40;84.50
21787;DHT22;11055;50.870;4.316;2022-07-29T16:04:39;26.10;81.50
21787;DHT22;11055;50.870;4.316;2022-07-29T16:07:05;25.90;83.80
21787;DHT22;11055;50.870;4.316;2022-07-29T16:09:31;26.00;84.20
21787;DHT22;11055;50.870;4.316;2022-07-29T16:11:56;26.00;83.20
21787;DHT22;11055;50.870;4.316;2022-07-29T16:14:22;26.00;83.30
21787;DHT22;11055;50.870;4.316;2022-07-29T16:16:47;26.00;83.40